createdAt,value
2018-09-13T00:00:09.529Z,16.5
2018-09-13T00:01:25.800Z,16.4
2018-09-13T00:02:10.759Z,16.4
2018-09-13T00:03:11.597Z,16.4
2018-09-13T00:04:09.528Z,16.3
2018-09-13T00:05:09.543Z,16.3
2018-09-13T00:06:09.544Z,16.2
2018-09-13T00:08:09.673Z,16.2
2018-09-13T00:09:09.508Z,16.1
2018-09-13T00:10:09.495Z,16.1
2018-09-13T00:11:09.525Z,16.1
2018-09-13T00:12:11.165Z,16.1
2018-09-13T00:13:09.538Z,16.1
2018-09-13T00:14:09.548Z,16.1
2018-09-13T00:15:09.549Z,16.1
2018-09-13T00:16:09.542Z,16.0
2018-09-13T00:17:09.600Z,16.0
2018-09-13T00:18:09.567Z,16.0
2018-09-13T00:19:10.010Z,16.0
2018-09-13T00:20:10.318Z,16.0
2018-09-13T00:21:09.608Z,16.0
2018-09-13T00:22:10.132Z,16.0
2018-09-13T00:23:10.234Z,16.0
2018-09-13T00:24:09.575Z,16.0
2018-09-13T00:25:09.586Z,16.0
2018-09-13T00:26:09.667Z,16.0
2018-09-13T00:27:09.633Z,16.1
2018-09-13T00:28:09.544Z,16.1
2018-09-13T00:29:09.673Z,16.3
2018-09-13T00:30:09.572Z,16.3
2018-09-13T00:31:09.885Z,16.3
2018-09-13T00:32:09.618Z,16.2
2018-09-13T00:33:09.952Z,16.2
2018-09-13T00:34:15.737Z,16.2
2018-09-13T00:35:14.450Z,16.2
2018-09-13T00:36:12.923Z,16.2
2018-09-13T00:37:10.615Z,16.0
2018-09-13T00:38:12.866Z,16.0
2018-09-13T00:39:18.345Z,15.9
2018-09-13T00:40:18.809Z,15.9
2018-09-13T00:41:26.622Z,15.9
2018-09-13T00:42:19.455Z,15.8
2018-09-13T00:43:18.019Z,15.8
2018-09-13T00:46:08.320Z,15.9
2018-09-13T00:46:28.613Z,15.9
2018-09-13T00:47:23.252Z,15.9
2018-09-13T00:48:30.563Z,15.9
2018-09-13T00:50:31.408Z,16.0
2018-09-13T00:51:31.170Z,16.0
2018-09-13T00:52:31.165Z,15.1
2018-09-13T00:53:31.661Z,15.1
2018-09-13T00:54:31.907Z,15.1
2018-09-13T00:55:30.960Z,15.1
2018-09-13T00:56:31.226Z,15.1
2018-09-13T00:57:31.165Z,15.1
2018-09-13T00:58:32.065Z,15.1
2018-09-13T00:59:31.182Z,15.0
2018-09-13T01:00:33.283Z,15.0
2018-09-13T01:01:32.799Z,15.0
2018-09-13T01:02:31.974Z,15.0
2018-09-13T01:03:31.865Z,15.0
2018-09-13T01:04:31.733Z,15.0
2018-09-13T01:05:31.272Z,15.0
2018-09-13T01:06:32.519Z,15.0
2018-09-13T01:07:30.997Z,15.1
2018-09-13T01:08:31.127Z,15.1
2018-09-13T01:10:30.908Z,15.1
2018-09-13T01:11:30.941Z,15.1
2018-09-13T01:12:30.980Z,15.1
2018-09-13T01:13:31.095Z,15.1
2018-09-13T01:14:31.055Z,15.1
2018-09-13T01:15:30.979Z,15.2
2018-09-13T01:16:31.435Z,15.2
2018-09-13T01:17:31.191Z,15.2
2018-09-13T01:18:31.208Z,15.2
2018-09-13T01:19:31.173Z,15.2
2018-09-13T01:20:49.787Z,15.2
2018-09-13T01:21:32.331Z,15.2
2018-09-13T01:22:32.243Z,15.4
2018-09-13T01:23:33.973Z,15.4
2018-09-13T01:24:33.711Z,15.4
2018-09-13T01:25:33.093Z,15.4
2018-09-13T01:26:32.575Z,15.4
2018-09-13T01:27:31.748Z,14.4
2018-09-13T01:28:33.220Z,14.4
2018-09-13T01:29:45.055Z,14.4
2018-09-13T01:30:39.537Z,14.4
2018-09-13T01:31:35.319Z,14.4
2018-09-13T01:32:36.073Z,14.5
2018-09-13T01:33:32.491Z,14.5
2018-09-13T01:35:35.751Z,14.5
2018-09-13T01:36:35.224Z,14.5
2018-09-13T01:37:34.271Z,14.6
2018-09-13T01:38:33.167Z,14.6
2018-09-13T01:39:34.744Z,14.6
2018-09-13T01:40:59.378Z,14.6
2018-09-13T01:41:39.688Z,14.6
2018-09-13T01:42:35.048Z,14.6
2018-09-13T01:43:35.510Z,14.5
2018-09-13T01:45:39.830Z,14.4
2018-09-13T01:46:36.324Z,14.4
2018-09-13T01:47:40.153Z,14.4
2018-09-13T01:49:32.279Z,13.9
2018-09-13T01:51:36.873Z,14.8
2018-09-13T01:52:47.476Z,14.8
2018-09-13T01:53:31.189Z,15.1
2018-09-13T01:55:42.627Z,15.4
2018-09-13T01:56:59.587Z,15.4
2018-09-13T01:57:32.698Z,15.4
2018-09-13T01:59:39.254Z,15.4
2018-09-13T02:00:32.421Z,15.5
2018-09-13T02:01:34.250Z,15.5
2018-09-13T02:02:31.040Z,15.5
2018-09-13T02:03:30.983Z,15.2
2018-09-13T02:04:31.048Z,15.2
2018-09-13T02:05:31.135Z,15.4
2018-09-13T02:06:31.078Z,15.4
2018-09-13T02:07:31.166Z,15.4
2018-09-13T02:08:31.025Z,15.1
2018-09-13T02:09:32.297Z,15.1
2018-09-13T02:10:31.565Z,14.7
2018-09-13T02:11:33.877Z,14.7
2018-09-13T02:12:31.919Z,14.7
2018-09-13T02:13:31.403Z,14.6
2018-09-13T02:14:37.032Z,14.6
2018-09-13T02:15:47.371Z,14.6
2018-09-13T02:16:43.358Z,14.6
2018-09-13T02:17:40.443Z,14.6
2018-09-13T02:18:37.450Z,14.5
2018-09-13T02:19:33.822Z,14.5
2018-09-13T02:20:34.445Z,14.5
2018-09-13T02:21:32.115Z,14.5
2018-09-13T02:22:33.962Z,14.5
2018-09-13T02:24:37.063Z,14.4
2018-09-13T02:25:34.549Z,14.4
2018-09-13T02:26:37.771Z,14.4
2018-09-13T02:27:38.754Z,14.4
2018-09-13T02:28:40.597Z,14.6
2018-09-13T02:29:42.227Z,14.6
2018-09-13T02:30:47.084Z,14.6
2018-09-13T02:31:43.024Z,14.8
2018-09-13T02:32:35.860Z,14.8
2018-09-13T02:33:42.603Z,14.9
2018-09-13T02:35:31.592Z,14.9
2018-09-13T02:36:32.779Z,14.8
2018-09-13T02:37:32.406Z,14.8
2018-09-13T02:48:40.949Z,14.6
2018-09-13T02:49:39.985Z,13.7
2018-09-13T02:50:40.090Z,13.7
2018-09-13T02:51:40.114Z,13.7
2018-09-13T02:52:40.131Z,13.7
2018-09-13T02:53:42.046Z,13.7
2018-09-13T02:54:40.207Z,13.9
2018-09-13T02:55:40.135Z,13.9
2018-09-13T02:57:41.158Z,13.9
2018-09-13T02:58:41.922Z,13.9
2018-09-13T02:59:41.246Z,13.8
2018-09-13T03:00:40.450Z,13.8
2018-09-13T03:01:40.991Z,13.8
2018-09-13T03:02:41.707Z,13.8
2018-09-13T03:04:40.672Z,13.9
2018-09-13T03:06:42.044Z,14.0
2018-09-13T03:07:41.045Z,14.0
2018-09-13T03:09:33.155Z,14.0
2018-09-13T03:09:41.937Z,14.0
2018-09-13T03:10:43.472Z,14.0
2018-09-13T03:11:43.617Z,14.2
2018-09-13T03:12:43.186Z,14.2
2018-09-13T03:13:41.848Z,14.2
2018-09-13T03:14:41.700Z,14.2
2018-09-13T03:15:41.665Z,14.2
2018-09-13T03:17:41.671Z,14.2
2018-09-13T03:18:41.977Z,14.2
2018-09-13T03:19:42.893Z,14.3
2018-09-13T03:20:42.465Z,14.3
2018-09-13T03:21:41.923Z,13.7
2018-09-13T03:22:44.154Z,13.7
2018-09-13T03:23:45.723Z,13.7
2018-09-13T03:24:47.795Z,13.6
2018-09-13T03:25:50.578Z,13.6
2018-09-13T03:26:43.368Z,13.6
2018-09-13T03:27:47.523Z,13.8
2018-09-13T03:28:43.207Z,13.8
2018-09-13T03:29:44.883Z,13.8
2018-09-13T03:30:41.692Z,13.8
2018-09-13T03:31:41.858Z,13.8
2018-09-13T03:32:42.620Z,14.0
2018-09-13T03:33:41.657Z,14.0
2018-09-13T03:34:42.026Z,14.0
2018-09-13T03:35:41.745Z,14.0
2018-09-13T03:36:42.997Z,14.0
2018-09-13T03:37:42.527Z,14.0
2018-09-13T03:38:41.727Z,14.0
2018-09-13T03:39:41.763Z,13.7
2018-09-13T03:40:41.691Z,13.7
2018-09-13T03:41:41.815Z,13.7
2018-09-13T03:42:41.784Z,13.9
2018-09-13T03:43:42.102Z,13.9
2018-09-13T03:44:41.980Z,14.0
2018-09-13T03:45:41.987Z,14.0
2018-09-13T03:46:41.729Z,14.0
2018-09-13T03:47:41.757Z,14.1
2018-09-13T03:48:42.088Z,14.1
2018-09-13T03:49:44.112Z,14.2
2018-09-13T03:50:42.721Z,14.2
2018-09-13T03:51:41.746Z,14.2
2018-09-13T03:52:42.727Z,14.2
2018-09-13T03:54:58.312Z,14.2
2018-09-13T03:56:43.145Z,14.2
2018-09-13T03:57:41.846Z,14.1
2018-09-13T03:58:43.351Z,14.1
2018-09-13T03:59:43.453Z,14.1
2018-09-13T04:00:42.735Z,14.0
2018-09-13T04:01:45.648Z,14.0
2018-09-13T04:02:49.585Z,13.9
2018-09-13T04:03:41.889Z,13.9
2018-09-13T04:04:48.702Z,13.9
2018-09-13T04:05:41.851Z,13.6
2018-09-13T04:06:45.865Z,13.6
2018-09-13T04:07:42.554Z,13.5
2018-09-13T04:09:42.254Z,13.5
2018-09-13T04:10:42.176Z,13.6
2018-09-13T04:11:43.256Z,13.6
2018-09-13T04:12:44.303Z,13.7
2018-09-13T04:13:44.332Z,13.7
2018-09-13T04:14:44.082Z,13.7
2018-09-13T04:15:42.231Z,13.8
2018-09-13T04:16:43.535Z,13.8
2018-09-13T04:17:43.295Z,13.8
2018-09-13T04:18:43.877Z,13.8
2018-09-13T04:19:46.173Z,13.8
2018-09-13T04:20:43.916Z,13.8
2018-09-13T04:21:44.726Z,13.8
2018-09-13T04:22:43.619Z,13.8
2018-09-13T04:23:44.391Z,13.8
2018-09-13T04:24:48.873Z,13.8
2018-09-13T04:25:44.368Z,13.8
2018-09-13T04:27:46.572Z,13.8
2018-09-13T04:29:41.962Z,14.0
2018-09-13T04:30:44.595Z,14.2
2018-09-13T04:31:42.489Z,14.2
2018-09-13T04:32:43.957Z,14.2
2018-09-13T04:33:47.170Z,14.0
2018-09-13T04:34:43.498Z,14.0
2018-09-13T04:35:42.404Z,13.7
2018-09-13T04:36:42.554Z,13.7
2018-09-13T04:38:12.434Z,13.7
2018-09-13T04:38:46.862Z,13.6
2018-09-13T04:39:42.695Z,13.6
2018-09-13T04:40:42.429Z,13.6
2018-09-13T04:41:42.896Z,13.6
2018-09-13T04:42:41.931Z,13.6
2018-09-13T04:43:42.318Z,13.7
2018-09-13T04:44:41.838Z,13.7
2018-09-13T04:45:41.938Z,13.3
2018-09-13T04:46:42.092Z,13.3
2018-09-13T04:47:43.045Z,13.3
2018-09-13T04:48:41.847Z,13.4
2018-09-13T04:49:41.934Z,13.4
2018-09-13T04:50:41.972Z,13.8
2018-09-13T04:51:42.748Z,13.8
2018-09-13T04:52:42.047Z,13.8
2018-09-13T04:53:41.880Z,14.0
2018-09-13T04:54:42.619Z,14.0
2018-09-13T04:55:41.900Z,14.0
2018-09-13T04:56:44.780Z,14.0
2018-09-13T04:57:43.320Z,14.0
2018-09-13T04:58:49.398Z,14.0
2018-09-13T05:00:44.687Z,14.0
2018-09-13T05:01:45.248Z,13.7
2018-09-13T05:03:42.202Z,13.6
2018-09-13T05:04:49.875Z,13.6
2018-09-13T05:05:42.739Z,13.6
2018-09-13T05:06:54.165Z,13.8
2018-09-13T05:07:53.066Z,13.8
2018-09-13T05:09:56.199Z,13.9
2018-09-13T05:11:01.047Z,13.9
2018-09-13T05:12:44.840Z,14.0
2018-09-13T05:13:49.296Z,14.1
2018-09-13T05:15:47.858Z,14.1
2018-09-13T05:16:55.563Z,14.1
2018-09-13T05:18:42.270Z,14.3
2018-09-13T05:20:52.653Z,14.3
2018-09-13T05:21:48.905Z,14.4
2018-09-13T05:22:43.314Z,14.4
2018-09-13T05:23:44.202Z,14.3
2018-09-13T05:24:45.443Z,14.3
2018-09-13T05:25:45.091Z,14.3
2018-09-13T05:26:44.240Z,14.1
2018-09-13T05:27:45.470Z,14.1
2018-09-13T05:28:45.878Z,14.1
2018-09-13T05:31:47.903Z,14.2
2018-09-13T05:32:43.992Z,14.2
2018-09-13T05:33:42.129Z,14.2
2018-09-13T05:36:51.974Z,14.4
2018-09-13T05:37:53.391Z,14.7
2018-09-13T05:38:52.163Z,14.7
2018-09-13T05:39:52.151Z,14.7
2018-09-13T05:40:53.873Z,14.7
2018-09-13T05:41:55.247Z,15.0
2018-09-13T05:42:52.085Z,15.0
2018-09-13T05:43:52.346Z,15.0
2018-09-13T05:44:52.100Z,15.0
2018-09-13T05:45:52.779Z,15.0
2018-09-13T05:48:05.299Z,15.2
2018-09-13T05:49:07.593Z,15.2
2018-09-13T05:50:07.422Z,15.2
2018-09-13T05:51:06.534Z,15.2
2018-09-13T05:52:05.075Z,15.3
2018-09-13T05:53:05.446Z,15.3
2018-09-13T05:54:07.369Z,15.3
2018-09-13T05:56:06.907Z,15.4
2018-09-13T05:57:05.751Z,15.6
2018-09-13T05:58:05.913Z,15.6
2018-09-13T05:59:07.086Z,15.6
2018-09-13T06:00:07.720Z,15.6
2018-09-13T06:01:08.702Z,15.6
2018-09-13T06:02:08.263Z,15.6
2018-09-13T06:03:13.790Z,15.6
2018-09-13T06:04:25.454Z,15.6
2018-09-13T06:05:14.380Z,15.8
2018-09-13T06:06:05.835Z,15.8
2018-09-13T06:08:09.525Z,15.8
2018-09-13T06:11:08.175Z,15.9
2018-09-13T06:12:05.207Z,15.9
2018-09-13T06:13:07.259Z,15.9
2018-09-13T06:14:17.769Z,15.9
2018-09-13T06:15:07.334Z,16.0
2018-09-13T06:16:05.908Z,16.0
2018-09-13T06:17:06.319Z,16.0
2018-09-13T06:18:05.803Z,16.0
2018-09-13T06:19:06.662Z,16.0
2018-09-13T06:20:06.411Z,16.0
2018-09-13T06:21:05.343Z,16.0
2018-09-13T06:22:05.229Z,16.0
2018-09-13T06:23:09.767Z,16.0
2018-09-13T06:24:05.882Z,16.0
2018-09-13T06:25:06.479Z,16.1
2018-09-13T06:26:05.845Z,16.1
2018-09-13T06:32:15.284Z,16.1
2018-09-13T06:33:14.988Z,16.1
2018-09-13T06:34:17.690Z,16.1
2018-09-13T06:35:17.431Z,16.1
2018-09-13T06:36:15.856Z,16.1
2018-09-13T06:37:15.651Z,16.1
2018-09-13T06:38:16.952Z,16.1
2018-09-13T06:39:15.036Z,16.1
2018-09-13T06:40:16.254Z,16.2
2018-09-13T06:41:15.069Z,16.2
2018-09-13T06:42:15.672Z,16.2
2018-09-13T06:43:16.430Z,16.2
2018-09-13T06:44:14.978Z,16.2
2018-09-13T06:45:15.136Z,16.2
2018-09-13T06:46:15.800Z,16.2
2018-09-13T06:47:15.745Z,16.2
2018-09-13T06:50:20.808Z,16.2
2018-09-13T06:51:21.423Z,16.2
2018-09-13T06:52:20.709Z,16.2
2018-09-13T06:53:21.781Z,16.1
2018-09-13T06:54:21.379Z,16.1
2018-09-13T06:55:20.754Z,16.2
2018-09-13T06:56:22.011Z,16.2
2018-09-13T06:57:20.844Z,16.2
2018-09-13T06:58:21.348Z,16.3
2018-09-13T06:59:21.021Z,16.3
2018-09-13T07:00:22.287Z,16.3
2018-09-13T07:01:21.053Z,16.3
2018-09-13T07:02:20.871Z,16.3
2018-09-13T07:04:20.837Z,16.3
2018-09-13T07:05:20.802Z,16.4
2018-09-13T07:06:21.293Z,16.4
2018-09-13T07:07:22.973Z,16.4
2018-09-13T07:08:36.860Z,16.4
2018-09-13T07:09:20.886Z,16.4
2018-09-13T07:10:20.804Z,16.4
2018-09-13T07:11:22.084Z,16.4
2018-09-13T07:12:20.893Z,16.4
2018-09-13T07:13:24.842Z,16.5
2018-09-13T07:14:21.114Z,16.5
2018-09-13T07:15:20.832Z,16.5
2018-09-13T07:16:20.845Z,16.5
2018-09-13T07:17:22.620Z,16.5
2018-09-13T07:18:20.707Z,16.5
2018-09-13T07:19:21.486Z,16.5
2018-09-13T07:20:20.768Z,16.5
2018-09-13T07:21:22.608Z,16.6
2018-09-13T07:22:23.470Z,16.6
2018-09-13T07:23:20.868Z,16.6
2018-09-13T07:24:20.850Z,16.6
2018-09-13T07:25:21.492Z,16.6
2018-09-13T07:26:23.456Z,16.6
2018-09-13T07:27:21.724Z,16.6
2018-09-13T07:29:25.750Z,16.6
2018-09-13T07:30:21.772Z,16.6
2018-09-13T07:31:20.773Z,16.6
2018-09-13T07:32:21.971Z,16.6
2018-09-13T07:33:20.917Z,16.6
2018-09-13T07:34:22.011Z,16.6
2018-09-13T07:36:20.797Z,16.6
2018-09-13T07:37:21.841Z,16.6
2018-09-13T07:38:20.803Z,16.6
2018-09-13T07:39:21.443Z,16.6
2018-09-13T07:40:20.784Z,16.6
2018-09-13T07:41:21.616Z,16.6
2018-09-13T07:44:22.496Z,16.7
2018-09-13T07:45:22.354Z,16.7
2018-09-13T07:46:22.322Z,16.7
2018-09-13T07:47:21.542Z,16.7
2018-09-13T07:48:20.799Z,16.7
2018-09-13T07:49:21.520Z,16.7
2018-09-13T07:51:21.822Z,16.7
2018-09-13T07:52:21.873Z,16.7
2018-09-13T07:54:23.457Z,16.8
2018-09-13T07:55:21.549Z,16.8
2018-09-13T07:56:21.512Z,16.8
2018-09-13T07:57:21.168Z,16.8
2018-09-13T07:58:21.132Z,16.8
2018-09-13T07:59:20.800Z,16.8
2018-09-13T08:01:21.998Z,16.9
2018-09-13T08:03:20.911Z,16.9
2018-09-13T08:04:21.088Z,16.8
2018-09-13T08:05:22.224Z,16.8
2018-09-13T08:06:22.941Z,16.9
2018-09-13T08:07:21.191Z,16.9
2018-09-13T08:08:23.929Z,16.9
2018-09-13T08:09:22.314Z,16.9
2018-09-13T08:10:23.130Z,16.9
2018-09-13T08:11:21.524Z,16.9
2018-09-13T08:12:20.929Z,17.0
2018-09-13T08:13:30.630Z,17.0
2018-09-13T08:14:24.059Z,17.2
2018-09-13T08:15:21.016Z,17.2
2018-09-13T08:16:38.398Z,17.2
2018-09-13T08:18:21.811Z,17.2
2018-09-13T08:19:22.394Z,17.3
2018-09-13T08:20:21.127Z,17.3
2018-09-13T08:21:21.261Z,17.3
2018-09-13T08:22:21.173Z,17.3
2018-09-13T08:23:21.388Z,17.3
2018-09-13T08:24:21.247Z,17.3
2018-09-13T08:25:20.898Z,17.3
2018-09-13T08:26:21.248Z,17.3
2018-09-13T08:27:22.845Z,17.4
2018-09-13T08:28:20.863Z,17.4
2018-09-13T08:29:21.021Z,17.6
2018-09-13T08:32:21.498Z,17.6
2018-09-13T08:33:21.502Z,17.6
2018-09-13T08:34:20.921Z,17.8
2018-09-13T08:38:40.334Z,17.8
2018-09-13T08:38:54.532Z,17.8
2018-09-13T08:39:55.512Z,18.1
2018-09-13T08:42:57.149Z,18.1
2018-09-13T08:43:57.492Z,18.1
2018-09-13T08:45:55.691Z,18.2
2018-09-13T08:46:56.601Z,18.2
2018-09-13T08:47:57.227Z,18.3
2018-09-13T08:48:57.373Z,18.3
2018-09-13T08:50:55.278Z,18.4
2018-09-13T08:51:56.395Z,18.4
2018-09-13T08:52:57.087Z,18.5
2018-09-13T08:53:58.011Z,18.5
2018-09-13T08:54:56.881Z,18.8
2018-09-13T08:55:57.234Z,18.8
2018-09-13T08:56:57.220Z,18.8
2018-09-13T08:57:56.213Z,18.8
2018-09-13T08:58:56.515Z,18.8
2018-09-13T08:59:55.338Z,19.0
2018-09-13T09:00:56.913Z,19.0
2018-09-13T09:01:56.232Z,19.0
2018-09-13T09:02:57.529Z,19.0
2018-09-13T09:03:57.549Z,19.0
2018-09-13T09:04:58.362Z,19.0
2018-09-13T09:05:55.598Z,19.0
2018-09-13T09:06:56.214Z,19.0
2018-09-13T09:07:56.236Z,19.0
2018-09-13T09:08:57.524Z,19.0
2018-09-13T09:09:56.576Z,19.2
2018-09-13T09:10:55.821Z,19.2
2018-09-13T09:11:56.662Z,19.2
2018-09-13T09:12:57.618Z,19.2
2018-09-13T09:14:56.149Z,19.2
2018-09-13T09:15:58.275Z,19.2
2018-09-13T09:16:55.209Z,19.2
2018-09-13T09:17:57.234Z,19.2
2018-09-13T09:18:57.127Z,19.2
2018-09-13T09:20:57.800Z,18.9
2018-09-13T09:22:57.605Z,19.0
2018-09-13T09:23:55.964Z,19.0
2018-09-13T09:25:55.498Z,18.8
2018-09-13T09:26:57.381Z,18.8
2018-09-13T09:27:59.343Z,18.9
2018-09-13T09:28:56.865Z,18.9
2018-09-13T09:29:55.952Z,18.9
2018-09-13T09:30:55.713Z,18.9
2018-09-13T09:31:56.489Z,18.9
2018-09-13T09:32:55.407Z,19.0
2018-09-13T09:33:56.124Z,19.0
2018-09-13T09:34:56.658Z,19.0
2018-09-13T09:35:57.108Z,19.2
2018-09-13T09:36:58.336Z,19.2
2018-09-13T09:37:57.182Z,19.2
2018-09-13T09:38:57.733Z,19.2
2018-09-13T09:39:58.010Z,19.2
2018-09-13T09:40:57.500Z,19.4
2018-09-13T09:41:56.980Z,19.4
2018-09-13T09:42:58.127Z,19.4
2018-09-13T09:43:57.487Z,19.4
2018-09-13T09:45:56.308Z,19.4
2018-09-13T09:48:00.546Z,19.4
2018-09-13T09:48:59.882Z,19.6
2018-09-13T09:49:57.460Z,19.6
2018-09-13T09:50:58.039Z,19.7
2018-09-13T09:51:59.533Z,19.7
2018-09-13T09:53:57.503Z,19.8
2018-09-13T09:54:58.257Z,19.8
2018-09-13T09:55:58.086Z,19.4
2018-09-13T09:56:56.780Z,19.4
2018-09-13T09:57:57.112Z,19.4
2018-09-13T09:58:58.541Z,19.6
2018-09-13T09:59:58.734Z,19.6
2018-09-13T10:00:58.335Z,19.8
2018-09-13T10:01:55.341Z,19.8
2018-09-13T10:02:55.465Z,19.8
2018-09-13T10:03:56.194Z,20.0
2018-09-13T10:04:57.287Z,20.0
2018-09-13T10:06:57.985Z,20.1
2018-09-13T10:08:01.140Z,20.1
2018-09-13T10:08:56.937Z,20.2
2018-09-13T10:09:57.349Z,20.2
2018-09-13T10:10:55.360Z,20.3
2018-09-13T10:12:57.225Z,20.3
2018-09-13T10:13:55.338Z,19.7
2018-09-13T10:14:55.616Z,19.7
2018-09-13T10:15:57.996Z,19.7
2018-09-13T10:16:55.412Z,19.6
2018-09-13T10:17:57.547Z,19.6
2018-09-13T10:18:55.678Z,19.7
2018-09-13T10:19:56.075Z,19.7
2018-09-13T10:20:55.320Z,19.7
2018-09-13T10:21:55.460Z,19.8
2018-09-13T10:22:55.536Z,19.8
2018-09-13T10:23:57.529Z,19.8
2018-09-13T10:24:55.456Z,19.8
2018-09-13T10:25:55.404Z,19.8
2018-09-13T10:26:56.847Z,19.7
2018-09-13T10:29:56.875Z,19.8
2018-09-13T10:31:55.652Z,20.0
2018-09-13T10:33:57.577Z,20.1
2018-09-13T10:35:55.774Z,20.1
2018-09-13T10:37:07.903Z,20.4
2018-09-13T10:37:56.065Z,20.4
2018-09-13T10:38:55.491Z,20.4
2018-09-13T10:39:58.303Z,20.4
2018-09-13T10:40:56.074Z,20.4
2018-09-13T10:41:57.362Z,20.2
2018-09-13T10:42:55.597Z,20.2
2018-09-13T10:43:55.457Z,20.1
2018-09-13T10:44:57.871Z,20.1
2018-09-13T10:45:56.547Z,20.1
2018-09-13T10:46:55.946Z,20.5
2018-09-13T10:47:56.928Z,20.5
2018-09-13T10:48:55.523Z,20.5
2018-09-13T10:50:55.347Z,20.6
2018-09-13T10:52:55.375Z,20.5
2018-09-13T10:53:55.400Z,20.5
2018-09-13T10:54:56.460Z,20.5
2018-09-13T10:56:07.065Z,20.5
2018-09-13T10:57:57.924Z,20.6
2018-09-13T10:58:56.330Z,20.6
2018-09-13T10:59:56.097Z,21.2
2018-09-13T11:00:58.304Z,21.2
2018-09-13T11:02:55.437Z,21.0
2018-09-13T11:03:59.800Z,21.0
2018-09-13T11:05:06.377Z,21.0
2018-09-13T11:05:55.910Z,21.0
2018-09-13T11:07:01.348Z,21.4
2018-09-13T11:07:55.684Z,21.4
2018-09-13T11:09:00.038Z,21.4
2018-09-13T11:10:00.229Z,21.4
2018-09-13T11:12:00.386Z,21.4
2018-09-13T11:13:59.438Z,21.4
2018-09-13T11:15:09.328Z,21.0
2018-09-13T11:15:58.842Z,21.0
2018-09-13T11:16:58.825Z,21.0
2018-09-13T11:17:57.601Z,21.1
2018-09-13T11:19:02.610Z,21.1
2018-09-13T11:19:58.201Z,21.2
2018-09-13T11:20:59.081Z,21.2
2018-09-13T11:22:01.336Z,21.2
2018-09-13T11:23:01.122Z,21.5
2018-09-13T11:24:12.889Z,21.5
2018-09-13T11:24:57.562Z,21.9
2018-09-13T11:25:56.571Z,21.9
2018-09-13T11:26:57.789Z,21.9
2018-09-13T11:27:56.847Z,21.6
2018-09-13T11:28:57.502Z,21.6
2018-09-13T11:30:09.738Z,21.4
2018-09-13T11:30:55.671Z,21.4
2018-09-13T11:31:58.724Z,21.4
2018-09-13T11:32:59.602Z,21.5
2018-09-13T11:34:11.085Z,21.5
2018-09-13T11:34:57.709Z,21.6
2018-09-13T11:36:11.839Z,21.6
2018-09-13T11:37:12.276Z,21.6
2018-09-13T11:38:02.321Z,21.5
2018-09-13T11:38:57.867Z,21.5
2018-09-13T11:39:55.759Z,21.8
2018-09-13T11:40:57.362Z,21.8
2018-09-13T11:46:53.041Z,21.8
2018-09-13T11:47:04.119Z,21.8
2018-09-13T11:48:04.817Z,21.9
2018-09-13T11:49:04.029Z,21.9
2018-09-13T11:50:04.569Z,22.2
2018-09-13T11:51:02.799Z,22.2
2018-09-13T11:52:04.105Z,22.2
2018-09-13T11:53:05.379Z,22.2
2018-09-13T11:54:08.705Z,22.2
2018-09-13T11:55:05.400Z,22.2
2018-09-13T11:56:03.005Z,22.2
2018-09-13T11:57:05.143Z,22.2
2018-09-13T11:58:03.324Z,22.1
2018-09-13T11:59:02.672Z,22.1
2018-09-13T12:01:03.721Z,22.4
2018-09-13T12:02:05.892Z,22.4
2018-09-13T12:03:03.287Z,22.3
2018-09-13T12:04:03.889Z,22.3
2018-09-13T12:05:05.589Z,22.3
2018-09-13T12:06:05.841Z,22.4
2018-09-13T12:07:03.426Z,22.4
2018-09-13T12:10:08.082Z,22.8
2018-09-13T12:11:03.893Z,22.8
2018-09-13T12:12:05.172Z,22.8
2018-09-13T12:13:04.220Z,23.2
2018-09-13T12:14:05.440Z,23.2
2018-09-13T12:17:02.743Z,23.3
2018-09-13T12:18:03.454Z,23.3
2018-09-13T12:19:04.890Z,23.3
2018-09-13T12:20:04.138Z,23.3
2018-09-13T12:22:04.081Z,23.0
2018-09-13T12:23:04.369Z,22.9
2018-09-13T12:24:05.078Z,22.9
2018-09-13T12:25:02.768Z,22.9
2018-09-13T12:27:15.586Z,22.9
2018-09-13T12:28:16.269Z,22.8
2018-09-13T12:29:19.425Z,22.8
2018-09-13T12:30:16.653Z,22.8
2018-09-13T12:31:15.656Z,22.9
2018-09-13T12:32:16.950Z,22.9
2018-09-13T12:33:16.194Z,22.8
2018-09-13T12:34:16.376Z,22.8
2018-09-13T12:35:15.592Z,22.8
2018-09-13T12:36:15.590Z,23.0
2018-09-13T12:38:08.057Z,23.0
2018-09-13T12:38:19.937Z,23.0
2018-09-13T12:41:16.669Z,23.1
2018-09-13T12:42:16.875Z,23.1
2018-09-13T12:43:17.235Z,23.1
2018-09-13T12:44:18.207Z,23.0
2018-09-13T12:45:17.329Z,23.0
2018-09-13T12:46:17.843Z,23.1
2018-09-13T12:47:18.704Z,23.1
2018-09-13T12:48:19.054Z,23.1
2018-09-13T12:49:17.922Z,22.8
2018-09-13T12:50:16.874Z,22.8
2018-09-13T12:51:16.612Z,23.4
2018-09-13T12:52:18.031Z,23.4
2018-09-13T12:53:17.157Z,23.4
2018-09-13T12:54:17.883Z,23.4
2018-09-13T12:55:17.850Z,23.4
2018-09-13T12:57:25.324Z,23.0
2018-09-13T12:58:40.726Z,22.8
2018-09-13T12:59:40.769Z,22.8
2018-09-13T13:00:41.091Z,22.8
2018-09-13T13:01:40.802Z,23.0
2018-09-13T13:02:43.193Z,23.0
2018-09-13T13:03:41.813Z,23.0
2018-09-13T13:04:40.037Z,23.2
2018-09-13T13:05:40.121Z,23.2
2018-09-13T13:06:40.237Z,23.2
2018-09-13T13:08:53.911Z,23.6
2018-09-13T13:09:53.184Z,23.6
2018-09-13T13:10:53.292Z,23.6
2018-09-13T13:11:53.471Z,23.7
2018-09-13T13:12:53.260Z,23.7
2018-09-13T13:13:53.232Z,23.5
2018-09-13T13:14:54.020Z,23.5
2018-09-13T13:15:54.540Z,23.5
2018-09-13T13:16:54.324Z,23.4
2018-09-13T13:19:03.307Z,23.4
2018-09-13T13:19:54.085Z,23.4
2018-09-13T13:20:53.240Z,23.4
2018-09-13T13:21:53.437Z,23.0
2018-09-13T13:22:55.562Z,23.0
2018-09-13T13:23:54.572Z,23.0
2018-09-13T13:24:57.268Z,23.1
2018-09-13T13:25:53.791Z,23.1
2018-09-13T13:26:53.981Z,23.0
2018-09-13T13:27:55.154Z,23.0
2018-09-13T13:28:57.412Z,23.0
2018-09-13T13:29:53.252Z,23.0
2018-09-13T13:30:53.214Z,23.0
2018-09-13T13:31:55.169Z,22.9
2018-09-13T13:32:54.429Z,22.9
2018-09-13T13:33:54.250Z,22.9
2018-09-13T13:34:53.272Z,22.9
2018-09-13T13:35:53.128Z,22.9
2018-09-13T13:36:53.217Z,22.8
2018-09-13T13:37:53.319Z,22.8
2018-09-13T13:38:54.765Z,22.8
2018-09-13T13:39:54.044Z,22.8
2018-09-13T13:40:53.221Z,22.8
2018-09-13T13:41:53.322Z,22.9
2018-09-13T13:42:57.932Z,22.9
2018-09-13T13:44:00.800Z,22.9
2018-09-13T13:44:53.247Z,23.1
2018-09-13T13:45:54.260Z,23.1
2018-09-13T13:46:55.011Z,23.1
2018-09-13T13:47:53.923Z,23.1
2018-09-13T13:48:54.031Z,23.1
2018-09-13T13:49:54.556Z,23.0
2018-09-13T13:51:53.773Z,23.0
2018-09-13T13:53:53.126Z,23.2
2018-09-13T13:54:53.352Z,23.4
2018-09-13T13:55:53.441Z,23.4
2018-09-13T13:56:54.124Z,23.4
2018-09-13T13:57:53.191Z,23.8
2018-09-13T13:58:53.240Z,23.8
2018-09-13T13:59:54.713Z,23.9
2018-09-13T14:00:53.802Z,23.9
2018-09-13T14:01:53.214Z,23.9
2018-09-13T14:02:53.252Z,24.4
2018-09-13T14:03:53.260Z,24.4
2018-09-13T14:04:53.245Z,24.2
2018-09-13T14:05:53.285Z,24.2
2018-09-13T14:09:04.439Z,24.2
2018-09-13T14:10:04.848Z,24.5
2018-09-13T14:11:07.670Z,24.5
2018-09-13T14:13:02.247Z,24.2
2018-09-13T14:14:02.507Z,24.2
2018-09-13T14:15:04.123Z,24.0
2018-09-13T14:17:02.912Z,24.0
2018-09-13T14:18:01.346Z,24.0
2018-09-13T14:19:03.490Z,24.0
2018-09-13T14:20:01.394Z,23.5
2018-09-13T14:21:01.383Z,23.5
2018-09-13T14:22:07.777Z,23.5
2018-09-13T14:23:01.413Z,23.6
2018-09-13T14:24:01.360Z,23.6
2018-09-13T14:25:04.756Z,23.6
2018-09-13T14:26:03.730Z,23.8
2018-09-13T14:27:02.032Z,23.8
2018-09-13T14:28:01.635Z,23.8
2018-09-13T14:29:01.329Z,23.8
2018-09-13T14:30:01.380Z,23.8
2018-09-13T14:32:01.470Z,23.4
2018-09-13T14:33:01.665Z,23.2
2018-09-13T14:34:01.517Z,23.2
2018-09-13T14:35:01.636Z,23.2
2018-09-13T14:36:01.387Z,23.2
2018-09-13T14:37:01.661Z,23.2
2018-09-13T14:38:01.554Z,23.2
2018-09-13T14:39:03.665Z,23.2
2018-09-13T14:40:01.491Z,23.2
2018-09-13T14:41:01.418Z,23.5
2018-09-13T14:42:01.421Z,23.5
2018-09-13T14:43:01.459Z,23.7
2018-09-13T14:44:01.727Z,23.7
2018-09-13T14:45:02.259Z,23.7
2018-09-13T14:46:01.461Z,24.0
2018-09-13T14:47:01.645Z,24.0
2018-09-13T14:48:01.488Z,23.8
2018-09-13T15:00:02.115Z,23.2
2018-09-13T15:01:02.161Z,23.2
2018-09-13T15:02:02.232Z,23.2
2018-09-13T15:03:02.230Z,23.2
2018-09-13T15:04:02.438Z,23.2
2018-09-13T15:05:02.218Z,23.2
2018-09-13T15:06:02.203Z,23.2
2018-09-13T15:07:02.626Z,23.2
2018-09-13T15:08:02.456Z,23.2
2018-09-13T15:09:02.543Z,23.2
2018-09-13T15:10:22.369Z,23.2
2018-09-13T15:11:02.261Z,23.1
2018-09-13T15:12:02.227Z,23.1
2018-09-13T15:13:02.479Z,23.1
2018-09-13T15:14:02.263Z,23.0
2018-09-13T15:15:02.329Z,23.0
2018-09-13T15:16:02.194Z,23.1
2018-09-13T15:17:02.505Z,23.1
2018-09-13T15:18:02.295Z,23.1
2018-09-13T15:19:02.186Z,23.0
2018-09-13T15:20:04.668Z,23.0
2018-09-13T15:21:02.118Z,22.8
2018-09-13T15:22:02.802Z,22.8
2018-09-13T15:23:04.185Z,22.8
2018-09-13T15:24:03.105Z,23.0
2018-09-13T15:25:02.231Z,23.0
2018-09-13T15:26:02.553Z,23.0
2018-09-13T15:27:02.395Z,23.3